createdAt,value
2023-07-23T00:02:29.718Z,17.77
2023-07-23T00:07:32.585Z,17.76
2023-07-23T00:12:36.933Z,17.74
2023-07-23T00:17:40.292Z,17.72
2023-07-23T00:22:43.128Z,17.70
2023-07-23T00:27:47.303Z,17.71
2023-07-23T00:32:51.909Z,17.68
2023-07-23T00:37:54.737Z,17.75
2023-07-23T00:42:58.906Z,17.77
2023-07-23T00:48:01.959Z,17.85
2023-07-23T00:53:04.855Z,17.90
2023-07-23T00:58:10.406Z,17.93
2023-07-23T01:03:13.258Z,17.95
2023-07-23T01:08:16.265Z,18.02
2023-07-23T01:13:20.847Z,18.03
2023-07-23T01:18:24.934Z,18.06
2023-07-23T01:23:29.040Z,18.07
2023-07-23T01:28:31.876Z,18.06
2023-07-23T01:33:35.122Z,18.12
2023-07-23T01:38:39.291Z,18.12
2023-07-23T01:43:43.250Z,18.06
2023-07-23T01:48:47.080Z,18.05
2023-07-23T01:53:51.251Z,18.03
2023-07-23T01:58:54.024Z,18.01
2023-07-23T02:03:56.907Z,18.00
2023-07-23T02:09:01.042Z,18.00
2023-07-23T02:14:03.978Z,18.00
2023-07-23T02:19:06.967Z,17.98
2023-07-23T02:24:11.228Z,17.98
2023-07-23T02:29:14.129Z,17.94
2023-07-23T02:34:16.952Z,17.90
2023-07-23T02:39:21.123Z,17.88
2023-07-23T02:44:24.162Z,17.88
2023-07-23T02:49:27.052Z,17.86
2023-07-23T02:54:31.263Z,17.84
2023-07-23T02:59:34.072Z,17.84
2023-07-23T03:04:37.420Z,17.82
2023-07-23T03:09:41.570Z,17.82
2023-07-23T03:14:44.422Z,17.84
2023-07-23T03:19:47.468Z,17.87
2023-07-23T03:24:52.374Z,17.83
2023-07-23T03:29:55.194Z,17.82
2023-07-23T03:34:57.974Z,17.82
2023-07-23T03:40:02.178Z,17.82
2023-07-23T03:45:05.928Z,17.81
2023-07-23T03:50:09.414Z,17.78
2023-07-23T03:55:14.896Z,17.81
2023-07-23T04:00:17.808Z,17.82
2023-07-23T04:05:20.906Z,17.89
2023-07-23T04:10:25.204Z,17.87
2023-07-23T04:15:37.871Z,17.83
2023-07-23T04:20:40.728Z,17.86
2023-07-23T04:25:44.849Z,17.93
2023-07-23T04:30:47.668Z,17.93
2023-07-23T04:35:50.589Z,18.03
2023-07-23T04:40:54.798Z,18.07
2023-07-23T04:45:57.746Z,18.09
2023-07-23T04:51:01.862Z,18.28
2023-07-23T04:56:07.126Z,18.25
2023-07-23T05:01:12.294Z,18.25
2023-07-23T05:06:15.136Z,18.36
2023-07-23T05:11:19.302Z,18.45
2023-07-23T05:16:22.240Z,18.52
2023-07-23T05:21:25.107Z,18.57
2023-07-23T05:26:29.316Z,18.57
2023-07-23T05:31:32.489Z,18.56
2023-07-23T05:36:35.586Z,18.65
2023-07-23T05:41:39.705Z,18.73
2023-07-23T05:46:42.575Z,18.87
2023-07-23T05:51:45.372Z,18.96
2023-07-23T05:56:49.626Z,19.00
2023-07-23T06:01:52.870Z,19.15
2023-07-23T06:06:57.031Z,19.27
2023-07-23T06:12:01.251Z,19.28
2023-07-23T06:17:04.154Z,19.39
2023-07-23T06:22:07.375Z,19.41
2023-07-23T06:27:11.528Z,19.65
2023-07-23T06:32:14.400Z,19.85
2023-07-23T06:37:17.364Z,20.07
2023-07-23T06:42:21.483Z,20.22
2023-07-23T06:47:24.539Z,20.16
2023-07-23T06:52:27.403Z,20.12
2023-07-23T06:57:31.704Z,20.11
2023-07-23T07:02:34.501Z,20.40
2023-07-23T07:07:39.026Z,20.49
2023-07-23T07:12:43.298Z,20.72
2023-07-23T07:17:46.969Z,21.03
2023-07-23T07:22:49.755Z,21.18
2023-07-23T07:27:53.984Z,20.99
2023-07-23T07:32:56.940Z,20.89
2023-07-23T07:37:59.831Z,20.94
2023-07-23T07:43:04.040Z,21.10
2023-07-23T07:48:07.347Z,21.29
2023-07-23T07:53:10.454Z,21.49
2023-07-23T07:58:16.492Z,21.66
2023-07-23T08:03:19.979Z,21.98
2023-07-23T08:08:26.391Z,22.41
2023-07-23T08:13:31.028Z,22.51
2023-07-23T08:18:35.079Z,22.68
2023-07-23T08:23:38.374Z,23.01
2023-07-23T08:28:45.573Z,23.38
2023-07-23T08:33:49.935Z,23.69
2023-07-23T08:38:53.512Z,23.80
2023-07-23T08:44:29.436Z,23.76
2023-07-23T08:49:33.880Z,23.83
2023-07-23T08:54:37.079Z,23.91
2023-07-23T08:59:41.930Z,24.01
2023-07-23T09:04:44.865Z,24.55
2023-07-23T09:09:49.828Z,24.88
2023-07-23T09:14:54.376Z,25.29
2023-07-23T09:19:57.356Z,25.28
2023-07-23T09:25:01.270Z,25.40
2023-07-23T09:30:06.607Z,25.58
2023-07-23T09:35:10.626Z,25.67
2023-07-23T09:40:14.686Z,25.59
2023-07-23T09:45:19.234Z,25.59
2023-07-23T09:50:22.337Z,25.89
2023-07-23T09:55:25.778Z,26.06
2023-07-23T10:00:30.597Z,26.03
2023-07-23T10:05:34.286Z,26.24
2023-07-23T10:10:37.234Z,26.48
2023-07-23T10:15:41.960Z,26.75
2023-07-23T10:20:46.921Z,26.48
2023-07-23T10:25:50.104Z,26.36
2023-07-23T10:31:25.504Z,26.55
2023-07-23T10:36:28.911Z,27.00
2023-07-23T10:41:50.309Z,27.28
2023-07-23T10:46:56.278Z,26.78
2023-07-23T10:52:13.784Z,26.78
2023-07-23T10:57:25.457Z,26.93
2023-07-23T11:02:30.620Z,26.92
2023-07-23T11:07:34.310Z,27.20
2023-07-23T11:12:38.290Z,27.52
2023-07-23T11:17:50.757Z,27.85
2023-07-23T11:23:00.554Z,28.20
2023-07-23T11:28:03.960Z,28.10
2023-07-23T11:33:08.326Z,28.61
2023-07-23T11:38:11.322Z,28.80
2023-07-23T11:43:14.254Z,28.35
2023-07-23T11:48:20.062Z,28.54
2023-07-23T11:53:33.705Z,28.21
2023-07-23T11:58:38.072Z,28.04
2023-07-23T12:03:44.002Z,27.97
2023-07-23T12:08:47.714Z,27.87
2023-07-23T12:13:53.646Z,27.73
2023-07-23T12:19:02.277Z,27.49
2023-07-23T12:24:16.315Z,27.00
2023-07-23T12:29:20.090Z,26.80
2023-07-23T12:34:25.593Z,26.60
2023-07-23T12:39:28.739Z,26.68
2023-07-23T12:44:32.540Z,26.63
2023-07-23T12:49:37.428Z,26.51
2023-07-23T12:54:41.265Z,26.47
2023-07-23T12:59:45.119Z,26.35
2023-07-23T13:04:49.615Z,26.44
2023-07-23T13:09:53.240Z,26.15
2023-07-23T13:14:56.762Z,26.18
2023-07-23T13:20:03.799Z,26.46
2023-07-23T13:25:08.001Z,26.46
2023-07-23T13:30:11.733Z,27.79
2023-07-23T13:35:16.401Z,27.60
2023-07-23T13:40:19.538Z,27.26
2023-07-23T13:45:22.642Z,27.15
2023-07-23T13:50:34.166Z,26.78
2023-07-23T13:55:44.392Z,26.66
2023-07-23T14:00:47.447Z,26.75
2023-07-23T14:05:52.159Z,25.99
2023-07-23T14:10:55.828Z,25.68
2023-07-23T14:15:59.272Z,25.27
2023-07-23T14:21:03.947Z,24.44
2023-07-23T14:26:06.987Z,23.38
2023-07-23T14:31:10.120Z,22.55
2023-07-23T14:36:14.391Z,22.49
2023-07-23T14:41:17.399Z,22.81
2023-07-23T14:46:20.301Z,23.25
2023-07-23T14:51:24.555Z,23.70
2023-07-23T14:56:27.589Z,24.08
2023-07-23T15:01:31.074Z,24.26
2023-07-23T15:06:36.634Z,24.36
2023-07-23T15:11:40.203Z,24.43
2023-07-23T15:16:43.628Z,24.46
2023-07-23T15:21:48.560Z,24.46
2023-07-23T15:26:54.043Z,24.23
2023-07-23T15:31:57.291Z,24.16
2023-07-23T15:37:01.766Z,23.98
2023-07-23T15:42:05.603Z,23.84
2023-07-23T15:47:08.976Z,23.85
2023-07-23T15:52:13.386Z,23.71
2023-07-23T15:57:16.265Z,23.73
2023-07-23T16:02:19.227Z,23.77
2023-07-23T16:07:23.727Z,23.83
2023-07-23T16:12:26.733Z,23.85
2023-07-23T16:17:29.543Z,23.79
2023-07-23T16:22:33.773Z,23.92
2023-07-23T16:27:36.972Z,23.90
2023-07-23T16:32:41.300Z,23.91
2023-07-23T16:37:48.538Z,23.98
2023-07-23T16:42:54.570Z,23.97
2023-07-23T16:47:57.558Z,23.96
2023-07-23T16:53:01.876Z,24.06
2023-07-23T16:58:05.004Z,24.13
2023-07-23T17:03:08.312Z,24.14
2023-07-23T17:08:12.501Z,24.15
2023-07-23T17:13:17.390Z,24.14
2023-07-23T17:18:20.674Z,24.04
2023-07-23T17:23:25.623Z,24.19
2023-07-23T17:28:28.503Z,24.11
2023-07-23T17:33:31.533Z,24.01
2023-07-23T17:38:35.933Z,23.88
2023-07-23T17:43:38.977Z,23.82
2023-07-23T17:48:42.109Z,23.77
2023-07-23T17:53:47.030Z,23.72
2023-07-23T17:58:51.025Z,23.74
2023-07-23T18:03:54.808Z,23.88
2023-07-23T18:08:59.014Z,23.86
2023-07-23T18:14:01.905Z,23.91
2023-07-23T18:19:04.804Z,23.98
2023-07-23T18:24:09.192Z,24.05
2023-07-23T18:29:12.170Z,23.93
2023-07-23T18:34:15.043Z,23.73
2023-07-23T18:39:19.325Z,23.51
2023-07-23T18:44:22.215Z,23.34
2023-07-23T18:49:25.078Z,23.20
2023-07-23T18:54:29.682Z,23.02
2023-07-23T18:59:34.475Z,22.74
2023-07-23T19:04:44.129Z,22.54
2023-07-23T19:09:50.399Z,22.36
2023-07-23T19:14:53.278Z,22.28
2023-07-23T19:19:56.435Z,22.16
2023-07-23T19:25:00.629Z,22.11
2023-07-23T19:30:03.673Z,22.07
2023-07-23T19:35:08.028Z,21.95
2023-07-23T19:40:13.344Z,21.83
2023-07-23T19:45:17.135Z,21.78
2023-07-23T19:50:21.045Z,21.70
2023-07-23T19:55:25.209Z,21.65
2023-07-23T20:00:28.308Z,21.63
2023-07-23T20:05:31.274Z,21.65
2023-07-23T20:10:35.487Z,21.66
2023-07-23T20:15:38.710Z,21.68
2023-07-23T20:20:41.504Z,21.68
2023-07-23T20:25:51.416Z,21.72
2023-07-23T20:30:55.599Z,21.75
2023-07-23T20:35:59.021Z,21.74
2023-07-23T20:41:05.354Z,21.71
2023-07-23T20:46:08.407Z,21.76
2023-07-23T20:51:11.341Z,21.82
2023-07-23T20:56:17.148Z,22.02
2023-07-23T21:01:20.120Z,22.25
2023-07-23T21:06:22.940Z,22.29
2023-07-23T21:11:27.078Z,22.32
2023-07-23T21:16:32.580Z,22.32
2023-07-23T21:21:35.693Z,22.35
2023-07-23T21:26:41.812Z,22.38
2023-07-23T21:31:44.630Z,22.38
2023-07-23T21:36:47.521Z,22.34
2023-07-23T21:41:51.863Z,22.36
2023-07-23T21:46:55.004Z,22.36
2023-07-23T21:51:57.789Z,22.32
2023-07-23T21:57:02.043Z,22.31
2023-07-23T22:02:05.237Z,22.31
2023-07-23T22:07:08.128Z,22.30
2023-07-23T22:12:12.252Z,22.26
2023-07-23T22:17:15.038Z,22.21
2023-07-23T22:22:20.290Z,22.17
2023-07-23T22:27:25.769Z,22.10
2023-07-23T22:32:32.151Z,22.10
2023-07-23T22:37:36.673Z,22.07
2023-07-23T22:42:42.522Z,22.05
2023-07-23T22:47:45.793Z,22.03
2023-07-23T22:52:48.556Z,22.08
2023-07-23T22:57:52.894Z,22.13
2023-07-23T23:02:55.737Z,22.15
2023-07-23T23:07:58.622Z,22.14
2023-07-23T23:13:02.765Z,22.09
2023-07-23T23:18:05.535Z,21.96
2023-07-23T23:23:08.407Z,21.90
2023-07-23T23:28:12.608Z,21.87
2023-07-23T23:33:15.433Z,21.82
2023-07-23T23:38:18.214Z,21.75
2023-07-23T23:43:22.704Z,21.66
2023-07-23T23:48:26.582Z,21.57
2023-07-23T23:53:29.558Z,21.49
2023-07-23T23:58:33.748Z,21.43
